sensor_id;sensor_type;location;lat;lon;timestamp;P1;durP1;ratioP1;P2;durP2;ratioP2
37859;SDS011;23698;52.014;5.190;2024-03-02T00:02:47;2.03;;;1.00;;
37859;SDS011;23698;52.014;5.190;2024-03-02T00:05:34;3.70;;;1.20;;
37859;SDS011;23698;52.014;5.190;2024-03-02T00:08:22;3.50;;;1.05;;
37859;SDS011;23698;52.014;5.190;2024-03-02T00:11:11;2.13;;;1.13;;
37859;SDS011;23698;52.014;5.190;2024-03-02T00:13:59;1.20;;;0.65;;
37859;SDS011;23698;52.014;5.190;2024-03-02T00:16:46;0.75;;;0.20;;
37859;SDS011;23698;52.014;5.190;2024-03-02T00:19:34;0.80;;;0.25;;
37859;SDS011;23698;52.014;5.190;2024-03-02T00:22:25;1.55;;;0.22;;
37859;SDS011;23698;52.014;5.190;2024-03-02T00:25:11;2.42;;;0.65;;
37859;SDS011;23698;52.014;5.190;2024-03-02T00:27:58;0.85;;;0.28;;
37859;SDS011;23698;52.014;5.190;2024-03-02T00:30:52;1.25;;;0.10;;
37859;SDS011;23698;52.014;5.190;2024-03-02T00:33:42;0.47;;;0.20;;
37859;SDS011;23698;52.014;5.190;2024-03-02T00:36:32;0.20;;;0.20;;
37859;SDS011;23698;52.014;5.190;2024-03-02T00:39:19;0.30;;;0.20;;
37859;SDS011;23698;52.014;5.190;2024-03-02T00:42:05;1.17;;;0.32;;
37859;SDS011;23698;52.014;5.190;2024-03-02T00:44:53;0.88;;;0.20;;
37859;SDS011;23698;52.014;5.190;2024-03-02T00:47:39;2.53;;;0.40;;
37859;SDS011;23698;52.014;5.190;2024-03-02T00:50:26;1.08;;;0.20;;
37859;SDS011;23698;52.014;5.190;2024-03-02T00:53:16;0.73;;;0.43;;
37859;SDS011;23698;52.014;5.190;2024-03-02T00:56:10;1.75;;;0.50;;
37859;SDS011;23698;52.014;5.190;2024-03-02T00:58:57;0.85;;;0.50;;
37859;SDS011;23698;52.014;5.190;2024-03-02T01:01:44;0.60;;;0.30;;
37859;SDS011;23698;52.014;5.190;2024-03-02T01:04:31;0.38;;;0.38;;
37859;SDS011;23698;52.014;5.190;2024-03-02T01:07:18;2.25;;;0.47;;
37859;SDS011;23698;52.014;5.190;2024-03-02T01:10:06;1.55;;;0.40;;
37859;SDS011;23698;52.014;5.190;2024-03-02T01:12:55;1.75;;;0.38;;
37859;SDS011;23698;52.014;5.190;2024-03-02T01:15:41;0.40;;;0.30;;
37859;SDS011;23698;52.014;5.190;2024-03-02T01:18:28;0.65;;;0.40;;
37859;SDS011;23698;52.014;5.190;2024-03-02T01:21:15;0.88;;;0.45;;
37859;SDS011;23698;52.014;5.190;2024-03-02T01:24:02;0.60;;;0.30;;
37859;SDS011;23698;52.014;5.190;2024-03-02T01:26:49;0.95;;;0.43;;
37859;SDS011;23698;52.014;5.190;2024-03-02T01:29:36;1.25;;;0.50;;
37859;SDS011;23698;52.014;5.190;2024-03-02T01:32:22;0.98;;;0.35;;
37859;SDS011;23698;52.014;5.190;2024-03-02T01:35:09;0.55;;;0.40;;
37859;SDS011;23698;52.014;5.190;2024-03-02T01:37:55;0.93;;;0.50;;
37859;SDS011;23698;52.014;5.190;2024-03-02T01:40:42;0.73;;;0.47;;
37859;SDS011;23698;52.014;5.190;2024-03-02T01:43:31;0.90;;;0.40;;
37859;SDS011;23698;52.014;5.190;2024-03-02T01:46:18;2.58;;;0.60;;
37859;SDS011;23698;52.014;5.190;2024-03-02T01:49:04;1.30;;;0.35;;
37859;SDS011;23698;52.014;5.190;2024-03-02T01:51:51;1.75;;;0.47;;
37859;SDS011;23698;52.014;5.190;2024-03-02T01:54:37;0.60;;;0.30;;
37859;SDS011;23698;52.014;5.190;2024-03-02T01:57:24;0.95;;;0.40;;
37859;SDS011;23698;52.014;5.190;2024-03-02T02:00:12;0.68;;;0.38;;
37859;SDS011;23698;52.014;5.190;2024-03-02T02:02:59;2.70;;;0.70;;
37859;SDS011;23698;52.014;5.190;2024-03-02T02:05:46;0.70;;;0.40;;
37859;SDS011;23698;52.014;5.190;2024-03-02T02:08:32;0.60;;;0.47;;
37859;SDS011;23698;52.014;5.190;2024-03-02T02:11:19;0.40;;;0.40;;
37859;SDS011;23698;52.014;5.190;2024-03-02T02:14:06;1.30;;;0.50;;
37859;SDS011;23698;52.014;5.190;2024-03-02T02:16:54;2.08;;;0.70;;
37859;SDS011;23698;52.014;5.190;2024-03-02T02:19:40;0.85;;;0.50;;
37859;SDS011;23698;52.014;5.190;2024-03-02T02:22:29;1.13;;;0.57;;
37859;SDS011;23698;52.014;5.190;2024-03-02T02:25:15;1.58;;;0.80;;
37859;SDS011;23698;52.014;5.190;2024-03-02T02:28:02;0.60;;;0.50;;
37859;SDS011;23698;52.014;5.190;2024-03-02T02:30:49;1.00;;;0.75;;
37859;SDS011;23698;52.014;5.190;2024-03-02T02:33:38;0.55;;;0.40;;
37859;SDS011;23698;52.014;5.190;2024-03-02T02:36:25;1.48;;;0.80;;
37859;SDS011;23698;52.014;5.190;2024-03-02T02:39:14;1.20;;;0.47;;
37859;SDS011;23698;52.014;5.190;2024-03-02T02:42:04;1.65;;;0.68;;
37859;SDS011;23698;52.014;5.190;2024-03-02T02:44:52;0.80;;;0.50;;
37859;SDS011;23698;52.014;5.190;2024-03-02T02:47:38;0.65;;;0.50;;
37859;SDS011;23698;52.014;5.190;2024-03-02T02:50:25;1.02;;;0.50;;
37859;SDS011;23698;52.014;5.190;2024-03-02T02:53:11;0.55;;;0.38;;
37859;SDS011;23698;52.014;5.190;2024-03-02T02:55:59;0.68;;;0.40;;
37859;SDS011;23698;52.014;5.190;2024-03-02T02:58:46;1.50;;;0.60;;
37859;SDS011;23698;52.014;5.190;2024-03-02T03:01:33;0.95;;;0.60;;
37859;SDS011;23698;52.014;5.190;2024-03-02T03:04:19;1.00;;;0.63;;
37859;SDS011;23698;52.014;5.190;2024-03-02T03:07:06;2.00;;;0.52;;
37859;SDS011;23698;52.014;5.190;2024-03-02T03:09:53;0.88;;;0.30;;
37859;SDS011;23698;52.014;5.190;2024-03-02T03:12:41;2.13;;;0.45;;
37859;SDS011;23698;52.014;5.190;2024-03-02T03:15:29;0.40;;;0.30;;
37859;SDS011;23698;52.014;5.190;2024-03-02T03:18:15;1.48;;;0.32;;
37859;SDS011;23698;52.014;5.190;2024-03-02T03:21:02;0.57;;;0.30;;
37859;SDS011;23698;52.014;5.190;2024-03-02T03:23:49;1.42;;;0.50;;
37859;SDS011;23698;52.014;5.190;2024-03-02T03:26:36;0.65;;;0.30;;
37859;SDS011;23698;52.014;5.190;2024-03-02T03:29:24;0.45;;;0.28;;
37859;SDS011;23698;52.014;5.190;2024-03-02T03:32:10;1.73;;;0.50;;
37859;SDS011;23698;52.014;5.190;2024-03-02T03:34:57;2.10;;;0.47;;
37859;SDS011;23698;52.014;5.190;2024-03-02T03:37:43;0.93;;;0.50;;
37859;SDS011;23698;52.014;5.190;2024-03-02T03:40:30;0.82;;;0.40;;
37859;SDS011;23698;52.014;5.190;2024-03-02T03:43:17;1.05;;;0.47;;
37859;SDS011;23698;52.014;5.190;2024-03-02T03:46:05;1.65;;;0.45;;
37859;SDS011;23698;52.014;5.190;2024-03-02T03:48:51;1.45;;;0.52;;
37859;SDS011;23698;52.014;5.190;2024-03-02T03:51:38;1.58;;;0.47;;
37859;SDS011;23698;52.014;5.190;2024-03-02T03:54:25;1.60;;;0.30;;
37859;SDS011;23698;52.014;5.190;2024-03-02T03:57:12;1.85;;;0.88;;
37859;SDS011;23698;52.014;5.190;2024-03-02T03:59:58;1.95;;;0.55;;
37859;SDS011;23698;52.014;5.190;2024-03-02T04:02:47;1.63;;;0.50;;
37859;SDS011;23698;52.014;5.190;2024-03-02T04:05:33;0.30;;;0.30;;
37859;SDS011;23698;52.014;5.190;2024-03-02T04:08:20;0.77;;;0.40;;
37859;SDS011;23698;52.014;5.190;2024-03-02T04:11:06;1.27;;;0.52;;
37859;SDS011;23698;52.014;5.190;2024-03-02T04:13:53;0.43;;;0.35;;
37859;SDS011;23698;52.014;5.190;2024-03-02T04:16:42;1.50;;;0.40;;
37859;SDS011;23698;52.014;5.190;2024-03-02T04:19:30;0.43;;;0.40;;
37859;SDS011;23698;52.014;5.190;2024-03-02T04:22:17;1.10;;;0.50;;
37859;SDS011;23698;52.014;5.190;2024-03-02T04:25:09;0.52;;;0.52;;
37859;SDS011;23698;52.014;5.190;2024-03-02T04:27:56;1.05;;;0.40;;
37859;SDS011;23698;52.014;5.190;2024-03-02T04:30:43;1.40;;;0.55;;
37859;SDS011;23698;52.014;5.190;2024-03-02T04:33:30;0.75;;;0.50;;
37859;SDS011;23698;52.014;5.190;2024-03-02T04:36:18;2.25;;;0.57;;
37859;SDS011;23698;52.014;5.190;2024-03-02T04:39:05;1.27;;;0.75;;
37859;SDS011;23698;52.014;5.190;2024-03-02T04:41:54;1.50;;;0.93;;
37859;SDS011;23698;52.014;5.190;2024-03-02T04:44:41;2.08;;;0.57;;
37859;SDS011;23698;52.014;5.190;2024-03-02T04:47:27;1.02;;;0.52;;
37859;SDS011;23698;52.014;5.190;2024-03-02T04:50:14;1.15;;;0.60;;
37859;SDS011;23698;52.014;5.190;2024-03-02T04:53:02;1.88;;;0.70;;
37859;SDS011;23698;52.014;5.190;2024-03-02T04:55:49;2.22;;;0.50;;
37859;SDS011;23698;52.014;5.190;2024-03-02T04:59:04;0.47;;;0.47;;
37859;SDS011;23698;52.014;5.190;2024-03-02T05:01:51;0.85;;;0.50;;
37859;SDS011;23698;52.014;5.190;2024-03-02T05:04:37;3.25;;;0.47;;
37859;SDS011;23698;52.014;5.190;2024-03-02T05:07:24;3.72;;;0.60;;
37859;SDS011;23698;52.014;5.190;2024-03-02T05:10:12;1.90;;;0.38;;
37859;SDS011;23698;52.014;5.190;2024-03-02T05:12:59;2.97;;;0.88;;
37859;SDS011;23698;52.014;5.190;2024-03-02T05:15:45;2.47;;;0.43;;
37859;SDS011;23698;52.014;5.190;2024-03-02T05:18:32;1.48;;;0.40;;
37859;SDS011;23698;52.014;5.190;2024-03-02T05:21:18;2.13;;;0.70;;
37859;SDS011;23698;52.014;5.190;2024-03-02T05:24:05;0.93;;;0.43;;
37859;SDS011;23698;52.014;5.190;2024-03-02T05:26:53;0.90;;;0.35;;
37859;SDS011;23698;52.014;5.190;2024-03-02T05:29:39;3.15;;;0.60;;
37859;SDS011;23698;52.014;5.190;2024-03-02T05:32:26;2.15;;;0.40;;
37859;SDS011;23698;52.014;5.190;2024-03-02T05:35:12;1.67;;;0.40;;
37859;SDS011;23698;52.014;5.190;2024-03-02T05:37:59;2.42;;;0.47;;
37859;SDS011;23698;52.014;5.190;2024-03-02T05:40:46;1.95;;;0.50;;
37859;SDS011;23698;52.014;5.190;2024-03-02T05:43:34;3.70;;;0.40;;
37859;SDS011;23698;52.014;5.190;2024-03-02T05:46:21;3.72;;;0.60;;
37859;SDS011;23698;52.014;5.190;2024-03-02T05:49:08;3.25;;;0.80;;
37859;SDS011;23698;52.014;5.190;2024-03-02T05:51:54;3.22;;;0.40;;
37859;SDS011;23698;52.014;5.190;2024-03-02T05:54:41;1.83;;;0.60;;
37859;SDS011;23698;52.014;5.190;2024-03-02T05:57:28;3.33;;;0.70;;
37859;SDS011;23698;52.014;5.190;2024-03-02T06:00:36;0.63;;;0.32;;
37859;SDS011;23698;52.014;5.190;2024-03-02T06:03:22;0.60;;;0.25;;
37859;SDS011;23698;52.014;5.190;2024-03-02T06:06:09;1.48;;;0.45;;
37859;SDS011;23698;52.014;5.190;2024-03-02T06:08:55;2.20;;;0.50;;
37859;SDS011;23698;52.014;5.190;2024-03-02T06:11:42;2.33;;;0.50;;
37859;SDS011;23698;52.014;5.190;2024-03-02T06:14:28;1.65;;;0.50;;
37859;SDS011;23698;52.014;5.190;2024-03-02T06:17:16;1.15;;;0.47;;
37859;SDS011;23698;52.014;5.190;2024-03-02T06:20:04;4.13;;;1.10;;
37859;SDS011;23698;52.014;5.190;2024-03-02T06:22:53;0.82;;;0.50;;
37859;SDS011;23698;52.014;5.190;2024-03-02T06:25:40;1.10;;;0.50;;
37859;SDS011;23698;52.014;5.190;2024-03-02T06:28:27;1.77;;;0.57;;
37859;SDS011;23698;52.014;5.190;2024-03-02T06:31:14;4.05;;;0.45;;
37859;SDS011;23698;52.014;5.190;2024-03-02T06:34:02;5.07;;;0.60;;
37859;SDS011;23698;52.014;5.190;2024-03-02T06:36:50;1.83;;;0.57;;
37859;SDS011;23698;52.014;5.190;2024-03-02T06:39:37;0.38;;;0.30;;
37859;SDS011;23698;52.014;5.190;2024-03-02T06:42:24;4.90;;;0.80;;
37859;SDS011;23698;52.014;5.190;2024-03-02T06:45:10;1.98;;;0.73;;
37859;SDS011;23698;52.014;5.190;2024-03-02T06:47:57;1.70;;;0.40;;
37859;SDS011;23698;52.014;5.190;2024-03-02T06:50:45;1.40;;;0.50;;
37859;SDS011;23698;52.014;5.190;2024-03-02T06:53:31;1.98;;;0.47;;
37859;SDS011;23698;52.014;5.190;2024-03-02T06:56:19;1.58;;;0.35;;
37859;SDS011;23698;52.014;5.190;2024-03-02T06:59:05;2.38;;;0.50;;
37859;SDS011;23698;52.014;5.190;2024-03-02T07:01:52;2.95;;;0.70;;
37859;SDS011;23698;52.014;5.190;2024-03-02T07:04:39;2.28;;;0.50;;
37859;SDS011;23698;52.014;5.190;2024-03-02T07:07:27;1.80;;;0.57;;
37859;SDS011;23698;52.014;5.190;2024-03-02T07:10:13;1.20;;;0.40;;
37859;SDS011;23698;52.014;5.190;2024-03-02T07:13:00;3.63;;;0.47;;
37859;SDS011;23698;52.014;5.190;2024-03-02T07:15:47;2.28;;;0.52;;
37859;SDS011;23698;52.014;5.190;2024-03-02T07:18:56;4.38;;;0.75;;
37859;SDS011;23698;52.014;5.190;2024-03-02T07:21:44;2.65;;;0.60;;
37859;SDS011;23698;52.014;5.190;2024-03-02T07:24:32;3.22;;;0.93;;
37859;SDS011;23698;52.014;5.190;2024-03-02T07:27:18;3.30;;;0.60;;
37859;SDS011;23698;52.014;5.190;2024-03-02T07:30:05;3.53;;;0.57;;
37859;SDS011;23698;52.014;5.190;2024-03-02T07:32:52;6.18;;;0.73;;
37859;SDS011;23698;52.014;5.190;2024-03-02T07:35:39;2.78;;;0.68;;
37859;SDS011;23698;52.014;5.190;2024-03-02T07:38:25;2.28;;;0.50;;
37859;SDS011;23698;52.014;5.190;2024-03-02T07:41:14;1.13;;;0.43;;
37859;SDS011;23698;52.014;5.190;2024-03-02T07:44:00;0.68;;;0.50;;
37859;SDS011;23698;52.014;5.190;2024-03-02T07:46:47;3.65;;;0.57;;
37859;SDS011;23698;52.014;5.190;2024-03-02T07:49:34;2.72;;;0.50;;
37859;SDS011;23698;52.014;5.190;2024-03-02T07:52:20;4.13;;;0.47;;
37859;SDS011;23698;52.014;5.190;2024-03-02T07:55:08;1.77;;;0.60;;
37859;SDS011;23698;52.014;5.190;2024-03-02T07:57:55;3.38;;;0.73;;
37859;SDS011;23698;52.014;5.190;2024-03-02T08:00:42;3.00;;;0.50;;
37859;SDS011;23698;52.014;5.190;2024-03-02T08:03:30;1.27;;;0.50;;
37859;SDS011;23698;52.014;5.190;2024-03-02T08:06:17;3.47;;;0.47;;
37859;SDS011;23698;52.014;5.190;2024-03-02T08:09:06;6.00;;;0.63;;
37859;SDS011;23698;52.014;5.190;2024-03-02T08:11:55;5.88;;;0.80;;
37859;SDS011;23698;52.014;5.190;2024-03-02T08:14:44;1.92;;;0.60;;
37859;SDS011;23698;52.014;5.190;2024-03-02T08:17:30;1.95;;;0.40;;
37859;SDS011;23698;52.014;5.190;2024-03-02T08:20:21;2.67;;;0.50;;
37859;SDS011;23698;52.014;5.190;2024-03-02T08:23:08;5.57;;;0.68;;
37859;SDS011;23698;52.014;5.190;2024-03-02T08:25:55;4.95;;;0.70;;
37859;SDS011;23698;52.014;5.190;2024-03-02T08:28:42;3.00;;;0.90;;
37859;SDS011;23698;52.014;5.190;2024-03-02T08:31:30;4.72;;;0.60;;
37859;SDS011;23698;52.014;5.190;2024-03-02T08:34:16;1.95;;;0.30;;
37859;SDS011;23698;52.014;5.190;2024-03-02T08:37:03;2.70;;;0.70;;
37859;SDS011;23698;52.014;5.190;2024-03-02T08:39:50;2.83;;;0.75;;
37859;SDS011;23698;52.014;5.190;2024-03-02T08:42:36;6.22;;;0.70;;
37859;SDS011;23698;52.014;5.190;2024-03-02T08:45:23;2.75;;;0.45;;
37859;SDS011;23698;52.014;5.190;2024-03-02T08:48:11;3.60;;;0.70;;
37859;SDS011;23698;52.014;5.190;2024-03-02T08:50:58;3.35;;;0.63;;
37859;SDS011;23698;52.014;5.190;2024-03-02T08:53:45;1.95;;;0.47;;
37859;SDS011;23698;52.014;5.190;2024-03-02T08:56:31;2.45;;;0.57;;
37859;SDS011;23698;52.014;5.190;2024-03-02T08:59:18;2.28;;;0.55;;
37859;SDS011;23698;52.014;5.190;2024-03-02T09:02:04;4.18;;;0.93;;
37859;SDS011;23698;52.014;5.190;2024-03-02T09:04:53;3.53;;;0.60;;
37859;SDS011;23698;52.014;5.190;2024-03-02T09:07:40;4.82;;;0.70;;
37859;SDS011;23698;52.014;5.190;2024-03-02T09:10:26;2.60;;;0.77;;
37859;SDS011;23698;52.014;5.190;2024-03-02T09:13:13;4.35;;;0.40;;
37859;SDS011;23698;52.014;5.190;2024-03-02T09:16:00;5.20;;;0.75;;
37859;SDS011;23698;52.014;5.190;2024-03-02T09:18:47;3.53;;;0.60;;
37859;SDS011;23698;52.014;5.190;2024-03-02T09:21:35;4.90;;;1.00;;
37859;SDS011;23698;52.014;5.190;2024-03-02T09:24:25;4.72;;;0.85;;
37859;SDS011;23698;52.014;5.190;2024-03-02T09:27:11;2.70;;;0.70;;
37859;SDS011;23698;52.014;5.190;2024-03-02T09:29:58;3.25;;;0.50;;
37859;SDS011;23698;52.014;5.190;2024-03-02T09:32:44;3.25;;;0.63;;
37859;SDS011;23698;52.014;5.190;2024-03-02T09:35:34;6.05;;;1.10;;
37859;SDS011;23698;52.014;5.190;2024-03-02T09:38:22;5.70;;;0.90;;
37859;SDS011;23698;52.014;5.190;2024-03-02T09:41:09;3.65;;;1.23;;
37859;SDS011;23698;52.014;5.190;2024-03-02T09:43:57;6.97;;;1.08;;
37859;SDS011;23698;52.014;5.190;2024-03-02T09:46:43;5.53;;;1.20;;
37859;SDS011;23698;52.014;5.190;2024-03-02T09:49:34;3.47;;;0.70;;
37859;SDS011;23698;52.014;5.190;2024-03-02T09:52:24;7.17;;;1.00;;
37859;SDS011;23698;52.014;5.190;2024-03-02T09:55:12;5.40;;;1.00;;
37859;SDS011;23698;52.014;5.190;2024-03-02T09:58:00;4.18;;;1.00;;
37859;SDS011;23698;52.014;5.190;2024-03-02T10:00:47;8.27;;;1.05;;
37859;SDS011;23698;52.014;5.190;2024-03-02T10:03:34;8.30;;;1.50;;
37859;SDS011;23698;52.014;5.190;2024-03-02T10:06:26;4.43;;;0.93;;
37859;SDS011;23698;52.014;5.190;2024-03-02T10:09:18;7.28;;;1.20;;
37859;SDS011;23698;52.014;5.190;2024-03-02T10:12:16;6.45;;;1.00;;
37859;SDS011;23698;52.014;5.190;2024-03-02T10:15:04;3.38;;;0.65;;
37859;SDS011;23698;52.014;5.190;2024-03-02T10:17:52;2.40;;;0.55;;
37859;SDS011;23698;52.014;5.190;2024-03-02T10:20:40;6.65;;;1.13;;
37859;SDS011;23698;52.014;5.190;2024-03-02T10:23:26;4.03;;;1.10;;
37859;SDS011;23698;52.014;5.190;2024-03-02T10:26:16;3.30;;;0.77;;
37859;SDS011;23698;52.014;5.190;2024-03-02T10:29:05;3.40;;;0.60;;
37859;SDS011;23698;52.014;5.190;2024-03-02T10:31:53;2.85;;;1.35;;
37859;SDS011;23698;52.014;5.190;2024-03-02T10:34:41;2.58;;;0.60;;
37859;SDS011;23698;52.014;5.190;2024-03-02T10:37:29;3.90;;;0.75;;
37859;SDS011;23698;52.014;5.190;2024-03-02T10:40:16;6.03;;;0.98;;
37859;SDS011;23698;52.014;5.190;2024-03-02T10:43:02;4.57;;;0.75;;
37859;SDS011;23698;52.014;5.190;2024-03-02T10:45:52;6.18;;;0.80;;
37859;SDS011;23698;52.014;5.190;2024-03-02T10:48:41;5.10;;;0.75;;
37859;SDS011;23698;52.014;5.190;2024-03-02T10:51:30;6.03;;;1.00;;
37859;SDS011;23698;52.014;5.190;2024-03-02T10:54:18;5.32;;;0.75;;
37859;SDS011;23698;52.014;5.190;2024-03-02T10:57:10;3.63;;;0.80;;
37859;SDS011;23698;52.014;5.190;2024-03-02T11:00:02;1.45;;;0.90;;
37859;SDS011;23698;52.014;5.190;2024-03-02T11:02:52;4.18;;;0.80;;
37859;SDS011;23698;52.014;5.190;2024-03-02T11:05:43;3.00;;;1.00;;
37859;SDS011;23698;52.014;5.190;2024-03-02T11:08:30;6.57;;;0.50;;
37859;SDS011;23698;52.014;5.190;2024-03-02T11:11:18;4.70;;;0.77;;
37859;SDS011;23698;52.014;5.190;2024-03-02T11:14:14;11.85;;;1.13;;
37859;SDS011;23698;52.014;5.190;2024-03-02T11:17:03;4.18;;;0.85;;
37859;SDS011;23698;52.014;5.190;2024-03-02T11:19:52;2.88;;;0.60;;
37859;SDS011;23698;52.014;5.190;2024-03-02T11:25:31;3.22;;;0.77;;
37859;SDS011;23698;52.014;5.190;2024-03-02T11:28:18;2.85;;;0.80;;
37859;SDS011;23698;52.014;5.190;2024-03-02T11:31:22;4.22;;;0.77;;
37859;SDS011;23698;52.014;5.190;2024-03-02T11:34:17;2.58;;;0.77;;
37859;SDS011;23698;52.014;5.190;2024-03-02T11:37:05;3.17;;;0.93;;
37859;SDS011;23698;52.014;5.190;2024-03-02T11:39:52;2.80;;;0.70;;
37859;SDS011;23698;52.014;5.190;2024-03-02T11:42:39;2.42;;;0.63;;
37859;SDS011;23698;52.014;5.190;2024-03-02T11:45:28;4.68;;;0.90;;
37859;SDS011;23698;52.014;5.190;2024-03-02T11:48:16;3.65;;;0.93;;
37859;SDS011;23698;52.014;5.190;2024-03-02T11:51:05;4.30;;;0.95;;
37859;SDS011;23698;52.014;5.190;2024-03-02T11:53:54;2.10;;;0.70;;
37859;SDS011;23698;52.014;5.190;2024-03-02T11:56:42;3.25;;;0.52;;
37859;SDS011;23698;52.014;5.190;2024-03-02T11:59:28;0.85;;;0.50;;
37859;SDS011;23698;52.014;5.190;2024-03-02T12:02:15;3.75;;;0.70;;
37859;SDS011;23698;52.014;5.190;2024-03-02T12:05:04;4.95;;;0.88;;
37859;SDS011;23698;52.014;5.190;2024-03-02T12:07:54;4.50;;;1.05;;
37859;SDS011;23698;52.014;5.190;2024-03-02T12:10:43;3.22;;;0.75;;
37859;SDS011;23698;52.014;5.190;2024-03-02T12:13:51;2.55;;;0.70;;
37859;SDS011;23698;52.014;5.190;2024-03-02T12:16:40;3.08;;;0.80;;
37859;SDS011;23698;52.014;5.190;2024-03-02T12:19:30;3.35;;;0.98;;
37859;SDS011;23698;52.014;5.190;2024-03-02T12:22:18;4.28;;;0.73;;
37859;SDS011;23698;52.014;5.190;2024-03-02T12:25:05;5.22;;;0.90;;
37859;SDS011;23698;52.014;5.190;2024-03-02T12:27:54;2.17;;;0.77;;
37859;SDS011;23698;52.014;5.190;2024-03-02T12:30:42;5.40;;;1.25;;
37859;SDS011;23698;52.014;5.190;2024-03-02T12:33:29;4.40;;;0.70;;
37859;SDS011;23698;52.014;5.190;2024-03-02T12:36:15;6.68;;;1.08;;
37859;SDS011;23698;52.014;5.190;2024-03-02T12:39:02;2.50;;;0.70;;
37859;SDS011;23698;52.014;5.190;2024-03-02T12:41:49;3.42;;;1.23;;
37859;SDS011;23698;52.014;5.190;2024-03-02T12:44:38;4.53;;;1.10;;
37859;SDS011;23698;52.014;5.190;2024-03-02T12:47:25;3.25;;;0.73;;
37859;SDS011;23698;52.014;5.190;2024-03-02T12:50:12;2.95;;;0.88;;
37859;SDS011;23698;52.014;5.190;2024-03-02T12:52:59;4.78;;;0.60;;
37859;SDS011;23698;52.014;5.190;2024-03-02T12:55:45;6.53;;;0.73;;
37859;SDS011;23698;52.014;5.190;2024-03-02T12:58:38;4.97;;;1.05;;
37859;SDS011;23698;52.014;5.190;2024-03-02T13:01:29;4.25;;;0.80;;
37859;SDS011;23698;52.014;5.190;2024-03-02T13:04:16;3.45;;;1.08;;
37859;SDS011;23698;52.014;5.190;2024-03-02T13:07:03;4.97;;;0.93;;
37859;SDS011;23698;52.014;5.190;2024-03-02T13:09:49;4.53;;;0.70;;
37859;SDS011;23698;52.014;5.190;2024-03-02T13:12:37;4.55;;;0.70;;
37859;SDS011;23698;52.014;5.190;2024-03-02T13:15:23;4.07;;;0.80;;
37859;SDS011;23698;52.014;5.190;2024-03-02T13:18:14;5.25;;;1.20;;
37859;SDS011;23698;52.014;5.190;2024-03-02T13:21:01;3.90;;;0.70;;
37859;SDS011;23698;52.014;5.190;2024-03-02T13:23:47;6.40;;;0.93;;
37859;SDS011;23698;52.014;5.190;2024-03-02T13:26:34;2.15;;;0.60;;
37859;SDS011;23698;52.014;5.190;2024-03-02T13:29:20;5.03;;;0.70;;
37859;SDS011;23698;52.014;5.190;2024-03-02T13:32:07;2.13;;;0.82;;
37859;SDS011;23698;52.014;5.190;2024-03-02T13:34:56;2.58;;;0.88;;
37859;SDS011;23698;52.014;5.190;2024-03-02T13:37:42;2.55;;;0.77;;
37859;SDS011;23698;52.014;5.190;2024-03-02T13:40:30;2.55;;;0.90;;
37859;SDS011;23698;52.014;5.190;2024-03-02T13:43:20;1.95;;;0.80;;
37859;SDS011;23698;52.014;5.190;2024-03-02T13:46:07;1.33;;;0.50;;
37859;SDS011;23698;52.014;5.190;2024-03-02T13:48:55;5.15;;;1.00;;
37859;SDS011;23698;52.014;5.190;2024-03-02T13:51:43;3.85;;;1.00;;
37859;SDS011;23698;52.014;5.190;2024-03-02T13:54:31;2.20;;;0.80;;
37859;SDS011;23698;52.014;5.190;2024-03-02T13:57:17;4.88;;;0.70;;
37859;SDS011;23698;52.014;5.190;2024-03-02T14:00:09;5.05;;;0.80;;
37859;SDS011;23698;52.014;5.190;2024-03-02T14:02:57;4.63;;;0.82;;
37859;SDS011;23698;52.014;5.190;2024-03-02T14:05:44;3.78;;;0.93;;
37859;SDS011;23698;52.014;5.190;2024-03-02T14:08:33;5.63;;;1.27;;
37859;SDS011;23698;52.014;5.190;2024-03-02T14:11:21;3.90;;;0.90;;
37859;SDS011;23698;52.014;5.190;2024-03-02T14:14:07;1.60;;;0.82;;
37859;SDS011;23698;52.014;5.190;2024-03-02T14:16:54;6.38;;;1.00;;
37859;SDS011;23698;52.014;5.190;2024-03-02T14:19:45;7.28;;;1.35;;
37859;SDS011;23698;52.014;5.190;2024-03-02T14:22:32;2.92;;;0.90;;
37859;SDS011;23698;52.014;5.190;2024-03-02T14:25:20;4.15;;;1.00;;
37859;SDS011;23698;52.014;5.190;2024-03-02T14:28:07;3.55;;;1.10;;
37859;SDS011;23698;52.014;5.190;2024-03-02T14:31:14;6.00;;;1.20;;
37859;SDS011;23698;52.014;5.190;2024-03-02T14:34:01;5.93;;;1.25;;
37859;SDS011;23698;52.014;5.190;2024-03-02T14:36:48;4.85;;;0.95;;
37859;SDS011;23698;52.014;5.190;2024-03-02T14:39:34;3.75;;;1.00;;
37859;SDS011;23698;52.014;5.190;2024-03-02T14:42:23;4.57;;;1.10;;
37859;SDS011;23698;52.014;5.190;2024-03-02T14:45:09;5.85;;;1.23;;
37859;SDS011;23698;52.014;5.190;2024-03-02T14:47:56;5.60;;;0.80;;
37859;SDS011;23698;52.014;5.190;2024-03-02T14:50:45;4.20;;;0.98;;
37859;SDS011;23698;52.014;5.190;2024-03-02T14:53:31;4.32;;;0.88;;
37859;SDS011;23698;52.014;5.190;2024-03-02T14:56:18;1.50;;;0.90;;
37859;SDS011;23698;52.014;5.190;2024-03-02T14:59:06;2.45;;;0.80;;
37859;SDS011;23698;52.014;5.190;2024-03-02T15:01:53;4.57;;;1.00;;
37859;SDS011;23698;52.014;5.190;2024-03-02T15:04:39;4.80;;;1.00;;
37859;SDS011;23698;52.014;5.190;2024-03-02T15:07:26;3.65;;;0.70;;
37859;SDS011;23698;52.014;5.190;2024-03-02T15:10:13;4.18;;;0.82;;
37859;SDS011;23698;52.014;5.190;2024-03-02T15:12:59;4.30;;;1.05;;
37859;SDS011;23698;52.014;5.190;2024-03-02T15:15:48;3.88;;;1.15;;
37859;SDS011;23698;52.014;5.190;2024-03-02T15:18:35;1.67;;;0.85;;
37859;SDS011;23698;52.014;5.190;2024-03-02T15:21:22;4.07;;;1.27;;
37859;SDS011;23698;52.014;5.190;2024-03-02T15:24:08;2.15;;;0.50;;
37859;SDS011;23698;52.014;5.190;2024-03-02T15:26:55;2.63;;;1.00;;
37859;SDS011;23698;52.014;5.190;2024-03-02T15:29:42;3.30;;;1.00;;
37859;SDS011;23698;52.014;5.190;2024-03-02T15:32:30;3.50;;;0.52;;
37859;SDS011;23698;52.014;5.190;2024-03-02T15:35:17;1.60;;;0.82;;
37859;SDS011;23698;52.014;5.190;2024-03-02T15:38:03;2.90;;;0.73;;
37859;SDS011;23698;52.014;5.190;2024-03-02T15:40:59;3.35;;;0.95;;
37859;SDS011;23698;52.014;5.190;2024-03-02T15:43:45;5.75;;;1.05;;
37859;SDS011;23698;52.014;5.190;2024-03-02T15:46:32;3.10;;;0.90;;
37859;SDS011;23698;52.014;5.190;2024-03-02T15:49:20;2.72;;;0.80;;
37859;SDS011;23698;52.014;5.190;2024-03-02T15:52:07;3.17;;;0.88;;
37859;SDS011;23698;52.014;5.190;2024-03-02T15:54:54;4.28;;;1.10;;
37859;SDS011;23698;52.014;5.190;2024-03-02T15:57:40;3.65;;;1.33;;
37859;SDS011;23698;52.014;5.190;2024-03-02T16:00:27;3.47;;;1.25;;
37859;SDS011;23698;52.014;5.190;2024-03-02T16:03:14;7.55;;;1.30;;
37859;SDS011;23698;52.014;5.190;2024-03-02T16:06:04;3.38;;;0.70;;
37859;SDS011;23698;52.014;5.190;2024-03-02T16:08:51;3.05;;;1.00;;
37859;SDS011;23698;52.014;5.190;2024-03-02T16:11:41;2.35;;;0.60;;
37859;SDS011;23698;52.014;5.190;2024-03-02T16:14:27;3.22;;;0.93;;
37859;SDS011;23698;52.014;5.190;2024-03-02T16:17:14;3.45;;;0.73;;
37859;SDS011;23698;52.014;5.190;2024-03-02T16:20:01;6.28;;;1.33;;
37859;SDS011;23698;52.014;5.190;2024-03-02T16:22:52;3.97;;;0.73;;
37859;SDS011;23698;52.014;5.190;2024-03-02T16:25:39;3.50;;;1.23;;
37859;SDS011;23698;52.014;5.190;2024-03-02T16:28:28;3.70;;;1.20;;
37859;SDS011;23698;52.014;5.190;2024-03-02T16:31:15;1.27;;;0.50;;
37859;SDS011;23698;52.014;5.190;2024-03-02T16:34:03;2.03;;;0.73;;
37859;SDS011;23698;52.014;5.190;2024-03-02T16:36:49;3.55;;;1.00;;
37859;SDS011;23698;52.014;5.190;2024-03-02T16:39:37;3.40;;;0.68;;
37859;SDS011;23698;52.014;5.190;2024-03-02T16:42:25;1.85;;;0.80;;
37859;SDS011;23698;52.014;5.190;2024-03-02T16:45:11;3.85;;;1.40;;
37859;SDS011;23698;52.014;5.190;2024-03-02T16:47:58;3.15;;;1.35;;
37859;SDS011;23698;52.014;5.190;2024-03-02T16:50:45;3.22;;;1.05;;
37859;SDS011;23698;52.014;5.190;2024-03-02T16:53:33;1.95;;;0.85;;
37859;SDS011;23698;52.014;5.190;2024-03-02T16:56:21;3.65;;;1.00;;